Time;durP1;ratioP1;P1;durP2;ratioP2;P2;SDS_P1;SDS_P2;PMS_P1;PMS_P2;Temp;Humidity;BMP_temperature;BMP_pressure;BME280_temperature;BME280_humidity;BME280_pressure;Samples;Min_cycle;Max_cycle;Signal;HPM_P1;HPM_P2
2023/05/23 00:01:10;;;;;;;8.35;4.38;;;;;;;;;;5102687;28;20029;-78
2023/05/23 00:03:37;;;;;;;14.52;8.07;;;;;;;;;;5103229;28;20024;-79
2023/05/23 00:06:05;;;;;;;9.98;5.07;;;;;;;;;;5098510;28;20383;-78
2023/05/23 00:08:31;;;;;;;9.00;4.57;;;;;;;;;;5103199;28;20028;-79
2023/05/23 00:10:57;;;;;;;12.75;5.88;;;;;;;;;;5103260;28;20440;-79
2023/05/23 00:13:23;;;;;;;17.17;9.20;;;;;;;;;;5103447;28;20032;-79
2023/05/23 00:15:49;;;;;;;12.60;5.72;;;;;;;;;;5104163;28;20409;-79
2023/05/23 00:18:25;;;;;;;10.00;4.43;;;;;;;;;;5104741;28;20506;-79
2023/05/23 00:20:57;;;;;;;11.73;6.07;;;;;;;;;;5103835;28;20405;-78
2023/05/23 00:23:24;;;;;;;16.38;5.78;;;;;;;;;;5104084;28;20024;-78
2023/05/23 00:25:53;;;;;;;14.32;6.80;;;;;;;;;;5094047;28;20054;-79
2023/05/23 00:28:19;;;;;;;20.27;5.28;;;;;;;;;;5102612;28;20505;-78
2023/05/23 00:30:45;;;;;;;15.40;5.90;;;;;;;;;;5103048;28;20044;-79
2023/05/23 00:33:13;;;;;;;11.65;4.85;;;;;;;;;;5103074;28;20103;-79
2023/05/23 00:35:39;;;;;;;12.52;4.43;;;;;;;;;;5102407;28;20024;-79
2023/05/23 00:38:06;;;;;;;11.77;5.90;;;;;;;;;;5101745;28;20024;-79
2023/05/23 00:40:33;;;;;;;9.38;4.57;;;;;;;;;;5101891;28;20454;-79
2023/05/23 00:42:59;;;;;;;11.30;5.78;;;;;;;;;;5101041;28;20024;-79
2023/05/23 00:45:25;;;;;;;11.70;6.25;;;;;;;;;;5085877;28;20090;-78
2023/05/23 00:47:51;;;;;;;16.88;9.48;;;;;;;;;;5082064;28;20029;-79
2023/05/23 00:50:18;;;;;;;10.07;5.82;;;;;;;;;;5096052;28;20031;-79
2023/05/23 00:52:45;;;;;;;12.90;6.82;;;;;;;;;;5101277;28;20474;-79
2023/05/23 00:55:11;;;;;;;12.93;5.57;;;;;;;;;;5101396;28;20028;-79
2023/05/23 00:57:43;;;;;;;15.88;5.93;;;;;;;;;;5101849;28;20058;-79
2023/05/23 01:00:09;;;;;;;17.33;8.77;;;;;;;;;;5096868;28;20066;-79
2023/05/23 01:02:40;;;;;;;13.73;5.05;;;;;;;;;;5096925;28;20027;-79
2023/05/23 01:05:06;;;;;;;14.20;7.10;;;;;;;;;;5082211;28;20390;-79
2023/05/23 01:07:32;;;;;;;15.68;8.15;;;;;;;;;;5095229;28;20035;-79
2023/05/23 01:09:58;;;;;;;11.35;5.80;;;;;;;;;;5082620;28;20024;-79
2023/05/23 01:12:29;;;;;;;13.55;4.18;;;;;;;;;;5100670;28;20360;-78
2023/05/23 01:15:07;;;;;;;17.98;6.35;;;;;;;;;;5082292;28;20031;-79
2023/05/23 01:17:49;;;;;;;19.55;5.85;;;;;;;;;;5101219;28;20093;-78
2023/05/23 01:20:19;;;;;;;15.88;6.13;;;;;;;;;;5084620;28;20043;-79
2023/05/23 01:22:48;;;;;;;10.50;4.45;;;;;;;;;;5101525;28;20096;-79
2023/05/23 01:25:23;;;;;;;15.73;6.25;;;;;;;;;;5101705;28;20036;-79
2023/05/23 01:27:55;;;;;;;9.50;4.70;;;;;;;;;;5100942;28;20413;-78
2023/05/23 01:30:22;;;;;;;17.00;6.38;;;;;;;;;;5094011;28;20044;-79
2023/05/23 01:32:50;;;;;;;6.28;3.30;;;;;;;;;;5102516;28;20027;-79
2023/05/23 01:35:25;;;;;;;8.13;4.38;;;;;;;;;;5101311;28;20031;-79
2023/05/23 01:37:52;;;;;;;8.23;3.30;;;;;;;;;;5101918;28;20035;-79
2023/05/23 01:40:18;;;;;;;19.60;4.47;;;;;;;;;;5093367;28;20078;-79
2023/05/23 01:42:49;;;;;;;5.97;3.15;;;;;;;;;;5101656;28;20024;-79
2023/05/23 01:45:20;;;;;;;13.52;5.88;;;;;;;;;;5083112;28;20310;-79
2023/05/23 01:47:49;;;;;;;10.35;4.97;;;;;;;;;;5100681;28;20546;-79
2023/05/23 01:50:15;;;;;;;8.55;3.42;;;;;;;;;;5100363;28;20470;-78
2023/05/23 01:52:41;;;;;;;14.23;5.30;;;;;;;;;;5101286;28;20031;-79
2023/05/23 01:55:08;;;;;;;11.27;5.00;;;;;;;;;;5100612;28;20064;-79
2023/05/23 01:57:38;;;;;;;13.23;5.18;;;;;;;;;;5100790;28;20020;-79
2023/05/23 02:00:06;;;;;;;9.32;4.60;;;;;;;;;;5100502;28;20055;-79
2023/05/23 02:02:34;;;;;;;9.00;4.05;;;;;;;;;;5099871;28;20036;-79
2023/05/23 02:05:00;;;;;;;13.40;6.15;;;;;;;;;;5100679;28;20040;-79
2023/05/23 02:07:26;;;;;;;7.18;3.83;;;;;;;;;;5102239;28;20028;-78
2023/05/23 02:09:52;;;;;;;11.18;5.28;;;;;;;;;;5101198;28;20056;-79
2023/05/23 02:12:18;;;;;;;8.40;4.20;;;;;;;;;;5102579;28;20077;-78
2023/05/23 02:14:44;;;;;;;11.43;4.97;;;;;;;;;;5104401;28;20103;-79
2023/05/23 02:17:10;;;;;;;10.02;4.47;;;;;;;;;;5104700;28;20090;-79
2023/05/23 02:19:37;;;;;;;15.07;5.32;;;;;;;;;;5105334;28;20063;-78
2023/05/23 02:22:03;;;;;;;8.07;3.22;;;;;;;;;;5105173;28;20028;-78
2023/05/23 02:24:29;;;;;;;15.70;4.28;;;;;;;;;;5104531;28;20159;-78
2023/05/23 02:27:02;;;;;;;6.80;3.53;;;;;;;;;;5103904;28;20485;-79
2023/05/23 02:29:28;;;;;;;15.35;7.00;;;;;;;;;;5104034;28;20491;-79
2023/05/23 02:31:54;;;;;;;17.02;4.72;;;;;;;;;;5105936;28;20036;-78
2023/05/23 02:34:20;;;;;;;12.05;3.80;;;;;;;;;;5104988;28;20032;-79
2023/05/23 02:36:45;;;;;;;10.93;3.95;;;;;;;;;;5086826;28;20039;-79
2023/05/23 02:39:11;;;;;;;10.70;5.22;;;;;;;;;;5085944;28;20231;-79
2023/05/23 02:41:38;;;;;;;10.35;4.10;;;;;;;;;;5105200;28;20382;-79
2023/05/23 02:44:04;;;;;;;8.32;2.20;;;;;;;;;;5103839;28;20032;-79
2023/05/23 02:46:30;;;;;;;8.15;3.83;;;;;;;;;;5104628;28;20047;-78
2023/05/23 02:48:56;;;;;;;9.55;3.17;;;;;;;;;;5098012;28;20463;-79
2023/05/23 02:51:21;;;;;;;9.48;3.10;;;;;;;;;;5082997;28;20020;-78
2023/05/23 02:53:47;;;;;;;5.75;2.63;;;;;;;;;;5096527;28;20035;-78
2023/05/23 02:56:14;;;;;;;11.15;3.40;;;;;;;;;;5103727;28;20099;-79
2023/05/23 02:58:40;;;;;;;7.82;2.35;;;;;;;;;;5104423;28;20038;-79
2023/05/23 03:01:07;;;;;;;4.47;2.15;;;;;;;;;;5088241;28;20025;-78
2023/05/23 03:03:33;;;;;;;11.43;4.40;;;;;;;;;;5093999;28;20036;-79
2023/05/23 03:05:59;;;;;;;9.27;3.20;;;;;;;;;;5106335;28;20035;-78
2023/05/23 03:08:25;;;;;;;14.68;4.63;;;;;;;;;;5106196;28;20032;-79
2023/05/23 03:10:52;;;;;;;12.75;4.88;;;;;;;;;;5097665;28;20164;-79
2023/05/23 03:13:31;;;;;;;9.70;3.50;;;;;;;;;;5105330;28;20032;-79
2023/05/23 03:15:57;;;;;;;12.48;5.65;;;;;;;;;;5085053;28;20054;-78
2023/05/23 03:18:22;;;;;;;8.27;3.78;;;;;;;;;;5102090;28;20032;-79
2023/05/23 03:20:49;;;;;;;9.73;5.25;;;;;;;;;;5084016;28;20067;-79
2023/05/23 03:23:15;;;;;;;4.88;2.83;;;;;;;;;;5101722;28;20024;-79
2023/05/23 03:25:42;;;;;;;7.15;3.15;;;;;;;;;;5106297;28;20028;-79
2023/05/23 03:28:08;;;;;;;6.95;2.78;;;;;;;;;;5105364;28;20120;-78
2023/05/23 03:30:34;;;;;;;12.93;3.13;;;;;;;;;;5097822;28;20071;-78
2023/05/23 03:33:00;;;;;;;10.45;3.88;;;;;;;;;;5101159;28;20025;-79
2023/05/23 03:35:26;;;;;;;10.13;3.17;;;;;;;;;;5095149;28;20054;-79
2023/05/23 03:37:52;;;;;;;9.73;4.57;;;;;;;;;;5105660;28;20028;-79
2023/05/23 03:40:18;;;;;;;12.20;4.45;;;;;;;;;;5105218;28;20016;-79
2023/05/23 03:42:44;;;;;;;10.32;4.88;;;;;;;;;;5104229;28;20102;-79
2023/05/23 03:45:11;;;;;;;10.23;4.15;;;;;;;;;;5104393;28;20633;-78
2023/05/23 03:47:37;;;;;;;3.47;2.33;;;;;;;;;;5104353;28;20024;-79
2023/05/23 03:50:03;;;;;;;9.05;3.95;;;;;;;;;;5102902;28;20421;-79
2023/05/23 03:52:29;;;;;;;10.52;5.65;;;;;;;;;;5103612;28;20028;-78
2023/05/23 03:54:57;;;;;;;5.68;3.17;;;;;;;;;;5103910;28;20028;-79
2023/05/23 03:57:23;;;;;;;8.93;4.07;;;;;;;;;;5103105;28;20055;-79
2023/05/23 03:59:49;;;;;;;5.63;3.20;;;;;;;;;;5103603;28;20042;-79
2023/05/23 04:02:15;;;;;;;8.95;4.57;;;;;;;;;;5104389;28;20051;-78
2023/05/23 04:04:42;;;;;;;7.95;4.68;;;;;;;;;;5103436;28;20063;-79
2023/05/23 04:07:08;;;;;;;8.18;3.25;;;;;;;;;;5105211;28;20048;-79
2023/05/23 04:09:34;;;;;;;8.43;4.05;;;;;;;;;;5087853;28;20032;-79
2023/05/23 04:12:01;;;;;;;10.18;3.28;;;;;;;;;;5083355;28;20024;-79
2023/05/23 04:14:27;;;;;;;13.50;4.10;;;;;;;;;;5104600;28;20035;-79
2023/05/23 04:16:53;;;;;;;9.90;3.90;;;;;;;;;;5095165;28;20039;-80
2023/05/23 04:19:19;;;;;;;6.03;3.85;;;;;;;;;;5082739;28;20024;-79
2023/05/23 04:21:45;;;;;;;5.90;2.40;;;;;;;;;;5106267;28;20066;-79
2023/05/23 04:24:11;;;;;;;12.70;4.13;;;;;;;;;;5104256;28;20032;-79
2023/05/23 04:26:38;;;;;;;7.53;2.55;;;;;;;;;;5103031;28;20028;-79
2023/05/23 04:29:04;;;;;;;10.93;5.57;;;;;;;;;;5103539;28;20032;-79
2023/05/23 04:31:32;;;;;;;8.05;2.90;;;;;;;;;;5097011;28;20028;-79
2023/05/23 04:33:58;;;;;;;14.60;3.60;;;;;;;;;;5106908;28;20032;-79
2023/05/23 04:36:25;;;;;;;10.88;4.85;;;;;;;;;;5117776;28;20028;-79
2023/05/23 04:38:51;;;;;;;9.98;3.28;;;;;;;;;;5110590;28;20462;-79
2023/05/23 04:41:22;;;;;;;9.57;3.80;;;;;;;;;;5103830;28;20050;-79
2023/05/23 04:43:52;;;;;;;6.35;3.50;;;;;;;;;;5103632;28;20418;-79
2023/05/23 04:46:21;;;;;;;12.55;4.95;;;;;;;;;;5103134;28;20042;-79
2023/05/23 04:48:47;;;;;;;10.55;4.50;;;;;;;;;;5103159;28;20035;-79
2023/05/23 04:51:13;;;;;;;8.95;3.95;;;;;;;;;;5093052;28;20024;-79
2023/05/23 04:53:39;;;;;;;7.55;3.20;;;;;;;;;;5104066;28;20398;-79
2023/05/23 04:56:07;;;;;;;8.65;4.45;;;;;;;;;;5103824;28;20027;-79
2023/05/23 04:58:33;;;;;;;7.45;3.13;;;;;;;;;;5089088;28;20050;-79
2023/05/23 05:00:59;;;;;;;7.97;3.65;;;;;;;;;;5089399;28;20024;-79
2023/05/23 05:03:25;;;;;;;4.90;3.13;;;;;;;;;;5089246;28;20051;-79
2023/05/23 05:05:52;;;;;;;5.20;1.65;;;;;;;;;;5106016;28;20036;-79
2023/05/23 05:08:21;;;;;;;6.75;2.88;;;;;;;;;;5106015;28;20557;-79
2023/05/23 05:10:47;;;;;;;8.40;3.70;;;;;;;;;;5103556;28;20028;-79
2023/05/23 05:13:13;;;;;;;7.55;2.78;;;;;;;;;;5104391;28;20057;-79
2023/05/23 05:15:39;;;;;;;13.15;3.38;;;;;;;;;;5087979;28;20024;-79
2023/05/23 05:18:05;;;;;;;8.13;2.00;;;;;;;;;;5106000;28;20016;-79
2023/05/23 05:20:33;;;;;;;6.78;2.58;;;;;;;;;;5103471;28;20387;-79
2023/05/23 05:23:08;;;;;;;12.98;2.92;;;;;;;;;;5105527;28;20054;-78
2023/05/23 05:25:37;;;;;;;8.18;2.83;;;;;;;;;;5105091;28;20050;-79
2023/05/23 05:28:05;;;;;;;5.55;1.60;;;;;;;;;;5113426;28;20026;-79
2023/05/23 05:30:34;;;;;;;18.45;3.88;;;;;;;;;;5092450;28;20384;-79
2023/05/23 05:33:03;;;;;;;7.87;2.60;;;;;;;;;;5102737;28;20058;-79
2023/05/23 05:35:32;;;;;;;10.10;2.80;;;;;;;;;;5105883;28;20268;-79
2023/05/23 05:37:59;;;;;;;11.38;3.03;;;;;;;;;;5105048;28;20032;-79
2023/05/23 05:40:25;;;;;;;13.50;3.15;;;;;;;;;;5104763;28;20024;-78
2023/05/23 05:42:51;;;;;;;8.20;2.85;;;;;;;;;;5111076;28;20055;-79
2023/05/23 05:45:17;;;;;;;13.68;3.60;;;;;;;;;;5115665;28;20031;-79
2023/05/23 05:47:44;;;;;;;7.65;1.88;;;;;;;;;;5106072;28;20028;-79
2023/05/23 05:50:10;;;;;;;6.80;2.15;;;;;;;;;;5083546;28;20040;-79
2023/05/23 05:52:38;;;;;;;10.30;3.50;;;;;;;;;;5088408;28;20031;-80
2023/05/23 05:55:13;;;;;;;12.75;2.42;;;;;;;;;;5108702;28;20024;-80
2023/05/23 05:57:39;;;;;;;15.02;2.63;;;;;;;;;;5093273;28;20050;-80
2023/05/23 06:00:11;;;;;;;9.07;2.33;;;;;;;;;;5100115;28;20062;-80
2023/05/23 06:02:37;;;;;;;12.88;2.95;;;;;;;;;;5089546;28;20028;-80
2023/05/23 06:05:05;;;;;;;6.80;2.00;;;;;;;;;;5104554;28;20065;-80
2023/05/23 06:07:31;;;;;;;10.98;2.28;;;;;;;;;;5099575;28;20048;-80
2023/05/23 06:09:57;;;;;;;8.82;2.13;;;;;;;;;;5089537;28;20029;-79
2023/05/23 06:12:23;;;;;;;21.40;2.90;;;;;;;;;;5112483;28;20032;-79
2023/05/23 06:14:49;;;;;;;9.98;2.70;;;;;;;;;;5090090;28;20032;-80
2023/05/23 06:17:15;;;;;;;6.25;1.88;;;;;;;;;;5107746;28;20024;-80
2023/05/23 06:19:41;;;;;;;12.65;3.33;;;;;;;;;;5095540;28;20067;-80
2023/05/23 06:22:07;;;;;;;10.57;2.55;;;;;;;;;;5101909;28;20436;-80
2023/05/23 06:24:33;;;;;;;8.18;2.00;;;;;;;;;;5106878;28;20081;-80
2023/05/23 06:26:59;;;;;;;11.25;2.58;;;;;;;;;;5095034;28;20058;-80
2023/05/23 06:29:25;;;;;;;8.55;2.13;;;;;;;;;;5081282;28;20055;-79
2023/05/23 06:31:51;;;;;;;8.68;2.35;;;;;;;;;;5088773;28;20115;-80
2023/05/23 06:34:17;;;;;;;12.70;2.80;;;;;;;;;;5087804;28;20025;-80
2023/05/23 06:36:43;;;;;;;11.40;1.80;;;;;;;;;;5088638;28;20020;-80
2023/05/23 06:39:09;;;;;;;7.07;2.47;;;;;;;;;;5087231;28;20111;-80
2023/05/23 06:41:35;;;;;;;8.20;1.83;;;;;;;;;;5088536;28;20099;-80
2023/05/23 06:44:11;;;;;;;8.30;2.33;;;;;;;;;;5076811;28;20073;-79
2023/05/23 06:46:56;;;;;;;9.32;3.35;;;;;;;;;;5087055;28;20033;-79
2023/05/23 06:49:22;;;;;;;7.40;2.35;;;;;;;;;;5079702;28;20024;-79
2023/05/23 06:51:49;;;;;;;10.50;2.65;;;;;;;;;;5081210;28;20055;-79
2023/05/23 06:54:15;;;;;;;5.68;1.42;;;;;;;;;;5063884;28;20064;-80
2023/05/23 06:56:40;;;;;;;10.38;2.83;;;;;;;;;;5071610;28;20040;-80
2023/05/23 06:59:06;;;;;;;6.78;2.97;;;;;;;;;;5079031;28;20694;-80
2023/05/23 07:01:32;;;;;;;12.52;3.63;;;;;;;;;;5080378;28;20230;-79
2023/05/23 07:03:58;;;;;;;7.53;2.17;;;;;;;;;;5081893;28;20078;-80
2023/05/23 07:06:26;;;;;;;6.18;2.17;;;;;;;;;;5086626;28;20028;-80
2023/05/23 07:08:52;;;;;;;7.28;2.33;;;;;;;;;;5090254;28;20017;-80
2023/05/23 07:11:18;;;;;;;10.90;2.83;;;;;;;;;;5099130;28;20031;-80
2023/05/23 07:13:45;;;;;;;11.95;2.42;;;;;;;;;;5104544;28;20052;-80
2023/05/23 07:16:11;;;;;;;9.10;2.05;;;;;;;;;;5101482;28;20017;-80
2023/05/23 07:18:37;;;;;;;9.75;2.70;;;;;;;;;;5090282;28;20046;-80
2023/05/23 07:21:03;;;;;;;11.10;3.05;;;;;;;;;;5093628;28;20492;-80
2023/05/23 07:23:33;;;;;;;11.90;3.05;;;;;;;;;;5093452;28;20028;-80
2023/05/23 07:25:59;;;;;;;5.50;2.67;;;;;;;;;;5080738;28;20074;-80
2023/05/23 07:28:25;;;;;;;10.57;3.05;;;;;;;;;;5094589;28;20107;-78
2023/05/23 07:30:51;;;;;;;7.32;2.10;;;;;;;;;;5103448;28;20077;-78
2023/05/23 07:33:17;;;;;;;10.15;1.98;;;;;;;;;;5116134;28;20020;-78
2023/05/23 07:35:44;;;;;;;5.82;1.60;;;;;;;;;;5112952;28;20053;-78
2023/05/23 07:38:10;;;;;;;11.52;3.53;;;;;;;;;;5122113;28;20020;-78
2023/05/23 07:40:37;;;;;;;8.65;2.95;;;;;;;;;;5108918;28;20363;-78
2023/05/23 07:43:03;;;;;;;15.15;1.85;;;;;;;;;;5107625;28;20492;-78
2023/05/23 07:45:29;;;;;;;5.85;2.00;;;;;;;;;;5101261;28;20118;-78
2023/05/23 07:47:55;;;;;;;10.45;2.75;;;;;;;;;;5083877;28;20028;-78
2023/05/23 07:50:21;;;;;;;6.10;1.77;;;;;;;;;;5095504;28;20043;-78
2023/05/23 07:52:47;;;;;;;4.22;0.95;;;;;;;;;;5115737;28;20028;-78
2023/05/23 07:55:13;;;;;;;5.53;2.08;;;;;;;;;;5103555;28;20047;-78
2023/05/23 07:57:46;;;;;;;8.40;2.65;;;;;;;;;;5117426;28;20024;-78
2023/05/23 08:00:13;;;;;;;9.35;2.50;;;;;;;;;;5112143;28;20035;-78
2023/05/23 08:02:39;;;;;;;8.30;2.95;;;;;;;;;;5119182;28;20073;-78
2023/05/23 08:05:05;;;;;;;10.80;2.55;;;;;;;;;;5099054;28;20046;-78
2023/05/23 08:07:31;;;;;;;10.48;2.25;;;;;;;;;;5105874;28;20023;-78
2023/05/23 08:09:57;;;;;;;8.65;2.15;;;;;;;;;;5101399;28;20052;-78
2023/05/23 08:12:23;;;;;;;9.63;1.90;;;;;;;;;;5103456;28;20028;-78
2023/05/23 08:14:49;;;;;;;9.10;2.25;;;;;;;;;;5103290;28;20049;-79
2023/05/23 08:17:15;;;;;;;5.88;1.48;;;;;;;;;;5102560;28;20036;-79
2023/05/23 08:19:42;;;;;;;5.82;1.77;;;;;;;;;;5103792;28;20032;-78
2023/05/23 08:22:08;;;;;;;6.60;1.38;;;;;;;;;;5104983;28;20054;-79
2023/05/23 08:24:34;;;;;;;8.70;1.98;;;;;;;;;;5096659;28;20436;-78
2023/05/23 08:27:00;;;;;;;7.70;2.00;;;;;;;;;;5110133;28;20036;-79
2023/05/23 08:29:27;;;;;;;9.73;3.63;;;;;;;;;;5114441;28;20059;-78
2023/05/23 08:31:53;;;;;;;12.75;3.08;;;;;;;;;;5101284;28;20032;-78
2023/05/23 08:34:19;;;;;;;13.23;3.95;;;;;;;;;;5104122;28;20031;-78
2023/05/23 08:36:45;;;;;;;9.63;2.95;;;;;;;;;;5110946;28;20093;-79
2023/05/23 08:39:11;;;;;;;12.10;3.38;;;;;;;;;;5100826;28;20055;-78
2023/05/23 08:41:38;;;;;;;6.40;1.33;;;;;;;;;;5102569;28;20032;-78
2023/05/23 08:44:05;;;;;;;5.35;2.63;;;;;;;;;;5103615;28;20027;-78
2023/05/23 08:46:31;;;;;;;6.75;1.55;;;;;;;;;;5102652;28;20024;-78
2023/05/23 08:48:59;;;;;;;7.55;2.05;;;;;;;;;;5102487;28;20059;-79
2023/05/23 08:51:26;;;;;;;10.95;3.45;;;;;;;;;;5101184;28;20012;-78
2023/05/23 08:53:52;;;;;;;10.57;2.65;;;;;;;;;;5081823;28;20056;-79
2023/05/23 08:56:18;;;;;;;5.13;1.88;;;;;;;;;;5101058;28;20020;-78
2023/05/23 08:58:46;;;;;;;8.90;1.60;;;;;;;;;;5105462;28;20035;-80
2023/05/23 09:01:13;;;;;;;3.60;1.02;;;;;;;;;;5098049;28;20016;-81
2023/05/23 09:03:41;;;;;;;4.22;1.55;;;;;;;;;;5106339;28;20023;-81
2023/05/23 09:06:07;;;;;;;6.95;2.58;;;;;;;;;;5106397;28;20745;-80
2023/05/23 09:08:33;;;;;;;9.13;2.47;;;;;;;;;;5105801;28;20032;-80
2023/05/23 09:11:01;;;;;;;8.07;1.85;;;;;;;;;;5106757;28;20028;-80
2023/05/23 09:13:29;;;;;;;7.40;1.65;;;;;;;;;;5106229;28;20455;-78
2023/05/23 09:15:58;;;;;;;10.15;2.08;;;;;;;;;;5100591;28;20474;-78
2023/05/23 09:18:26;;;;;;;3.00;1.20;;;;;;;;;;5100674;28;20024;-78
2023/05/23 09:20:52;;;;;;;7.55;1.73;;;;;;;;;;5103839;28;20024;-78
2023/05/23 09:23:23;;;;;;;9.10;2.20;;;;;;;;;;5099055;28;20020;-78
2023/05/23 09:25:49;;;;;;;6.70;1.95;;;;;;;;;;5107618;28;20056;-78
2023/05/23 09:28:15;;;;;;;7.72;2.42;;;;;;;;;;5100640;28;20031;-78
2023/05/23 09:30:41;;;;;;;8.90;2.72;;;;;;;;;;5093960;28;20044;-78
2023/05/23 09:33:07;;;;;;;2.22;1.38;;;;;;;;;;5106813;28;20024;-78
2023/05/23 09:35:33;;;;;;;9.25;2.40;;;;;;;;;;5109126;28;20536;-78
2023/05/23 09:37:59;;;;;;;12.18;2.30;;;;;;;;;;5098094;28;20024;-79
2023/05/23 09:40:34;;;;;;;6.57;2.03;;;;;;;;;;5119517;28;20020;-78
2023/05/23 09:43:04;;;;;;;8.38;1.67;;;;;;;;;;5107122;28;20028;-78
2023/05/23 09:45:31;;;;;;;11.98;2.75;;;;;;;;;;5095187;28;20037;-78
2023/05/23 09:47:57;;;;;;;5.68;1.77;;;;;;;;;;5084046;28;20025;-78
2023/05/23 09:50:23;;;;;;;3.58;0.75;;;;;;;;;;5103031;28;20042;-78
2023/05/23 09:52:50;;;;;;;5.97;1.50;;;;;;;;;;5122988;28;20023;-78
2023/05/23 09:55:16;;;;;;;7.43;2.15;;;;;;;;;;5125667;28;20405;-78
2023/05/23 09:57:42;;;;;;;8.80;1.38;;;;;;;;;;5129315;27;20028;-79
2023/05/23 10:00:15;;;;;;;7.45;1.58;;;;;;;;;;5114255;28;20117;-78
2023/05/23 10:02:52;;;;;;;4.93;1.85;;;;;;;;;;5125703;28;20023;-78
2023/05/23 10:05:30;;;;;;;5.50;1.20;;;;;;;;;;5109982;28;20058;-79
2023/05/23 10:08:06;;;;;;;9.27;1.70;;;;;;;;;;5093450;28;20384;-79
2023/05/23 10:10:32;;;;;;;4.63;1.88;;;;;;;;;;5110057;28;20103;-79
2023/05/23 10:13:02;;;;;;;8.32;2.30;;;;;;;;;;5104150;28;20303;-78
2023/05/23 10:15:30;;;;;;;10.98;3.55;;;;;;;;;;5109831;28;20031;-79
2023/05/23 10:17:56;;;;;;;6.93;1.77;;;;;;;;;;5110033;28;20039;-78
2023/05/23 10:20:25;;;;;;;9.38;1.60;;;;;;;;;;5108327;28;20071;-78
2023/05/23 10:22:51;;;;;;;11.93;3.28;;;;;;;;;;5113353;28;20028;-78
2023/05/23 10:25:17;;;;;;;8.18;2.03;;;;;;;;;;5104108;28;20047;-79
2023/05/23 10:27:43;;;;;;;9.65;2.08;;;;;;;;;;5111250;28;20076;-78
2023/05/23 10:30:32;;;;;;;3.13;1.35;;;;;;;;;;5087643;28;20067;-79
2023/05/23 10:32:59;;;;;;;5.72;1.60;;;;;;;;;;5086034;28;20024;-78
2023/05/23 10:35:28;;;;;;;12.38;2.15;;;;;;;;;;5092970;28;20016;-79
2023/05/23 10:38:17;;;;;;;8.27;1.85;;;;;;;;;;5097333;28;20036;-79
2023/05/23 10:40:50;;;;;;;7.93;1.75;;;;;;;;;;5096546;28;20020;-79
2023/05/23 10:43:19;;;;;;;7.93;1.55;;;;;;;;;;5094362;28;20027;-78
2023/05/23 10:45:49;;;;;;;8.18;1.88;;;;;;;;;;5086387;28;20040;-78
2023/05/23 10:48:35;;;;;;;8.05;2.05;;;;;;;;;;5098158;28;20031;-78
2023/05/23 10:51:02;;;;;;;12.10;2.88;;;;;;;;;;5098086;28;20028;-78
2023/05/23 10:53:29;;;;;;;7.95;2.00;;;;;;;;;;5079639;28;20062;-78
2023/05/23 10:55:56;;;;;;;5.45;1.65;;;;;;;;;;5084260;28;20033;-78
2023/05/23 10:58:22;;;;;;;7.28;1.92;;;;;;;;;;5082348;28;20070;-78
2023/05/23 11:01:00;;;;;;;6.13;1.83;;;;;;;;;;5080570;28;20070;-78
2023/05/23 11:03:37;;;;;;;9.15;1.80;;;;;;;;;;5093327;28;20475;-79
2023/05/23 11:06:03;;;;;;;7.20;2.15;;;;;;;;;;5102767;28;20382;-78
2023/05/23 11:08:41;;;;;;;7.90;2.58;;;;;;;;;;5105451;28;20054;-78
2023/05/23 11:11:07;;;;;;;9.15;2.40;;;;;;;;;;5082251;28;20017;-78
2023/05/23 11:13:52;;;;;;;9.63;1.88;;;;;;;;;;5081696;28;20025;-78
2023/05/23 11:16:27;;;;;;;4.85;1.25;;;;;;;;;;5084024;28;20099;-78
2023/05/23 11:19:13;;;;;;;8.48;2.55;;;;;;;;;;5096574;28;20028;-78
2023/05/23 11:22:08;;;;;;;8.13;1.67;;;;;;;;;;5072986;28;20102;-79
2023/05/23 11:24:50;;;;;;;4.80;1.40;;;;;;;;;;5076827;28;20123;-78
2023/05/23 11:27:19;;;;;;;8.73;2.08;;;;;;;;;;5076037;28;20080;-78
2023/05/23 11:29:45;;;;;;;5.55;1.50;;;;;;;;;;5066222;28;20127;-78
2023/05/23 11:32:12;;;;;;;8.80;1.75;;;;;;;;;;5076862;28;20107;-78
2023/05/23 11:34:38;;;;;;;7.47;2.05;;;;;;;;;;5080797;28;20032;-78
2023/05/23 11:37:04;;;;;;;7.80;1.67;;;;;;;;;;5091214;28;20040;-78
2023/05/23 11:39:30;;;;;;;4.22;1.58;;;;;;;;;;5100596;28;20046;-78
2023/05/23 11:42:00;;;;;;;7.90;1.70;;;;;;;;;;5100459;28;20032;-78
2023/05/23 11:44:26;;;;;;;3.50;1.23;;;;;;;;;;5099055;28;20036;-78
2023/05/23 11:47:01;;;;;;;11.05;2.38;;;;;;;;;;5099000;28;20027;-78
2023/05/23 11:49:28;;;;;;;5.78;2.15;;;;;;;;;;5099571;28;20021;-78
2023/05/23 11:51:54;;;;;;;3.95;0.95;;;;;;;;;;5098569;28;20089;-78
2023/05/23 11:54:23;;;;;;;5.13;1.10;;;;;;;;;;5097885;28;20083;-77
2023/05/23 11:56:56;;;;;;;14.35;2.00;;;;;;;;;;5098083;28;20526;-78
2023/05/23 11:59:24;;;;;;;6.63;1.38;;;;;;;;;;5098958;28;20744;-78
2023/05/23 12:01:52;;;;;;;3.30;0.90;;;;;;;;;;5085753;28;20020;-78
2023/05/23 12:04:18;;;;;;;7.35;1.88;;;;;;;;;;5098503;28;20028;-78
2023/05/23 12:06:48;;;;;;;5.22;1.50;;;;;;;;;;5098273;28;20036;-78
2023/05/23 12:09:14;;;;;;;7.07;2.28;;;;;;;;;;5097450;28;20395;-78
2023/05/23 12:11:41;;;;;;;6.15;1.15;;;;;;;;;;5098393;28;20580;-78
2023/05/23 12:14:08;;;;;;;9.07;1.67;;;;;;;;;;5098088;28;20021;-78
2023/05/23 12:16:35;;;;;;;7.97;1.60;;;;;;;;;;5098457;28;20059;-78
2023/05/23 12:19:02;;;;;;;4.53;1.73;;;;;;;;;;5079868;28;20050;-78
2023/05/23 12:21:47;;;;;;;11.80;4.07;;;;;;;;;;5098419;28;20035;-78
2023/05/23 12:24:17;;;;;;;5.68;1.40;;;;;;;;;;5073645;28;20021;-79
2023/05/23 12:26:47;;;;;;;8.15;2.03;;;;;;;;;;5082185;28;20049;-79
2023/05/23 12:29:13;;;;;;;1.15;0.77;;;;;;;;;;5083466;28;20140;-79
2023/05/23 12:31:39;;;;;;;27.02;2.97;;;;;;;;;;5098955;28;20060;-79
2023/05/23 12:34:05;;;;;;;5.90;1.33;;;;;;;;;;5100938;28;20020;-79
2023/05/23 12:36:31;;;;;;;4.85;1.48;;;;;;;;;;5100039;28;20356;-79
2023/05/23 12:39:03;;;;;;;8.02;2.40;;;;;;;;;;5097510;28;20073;-79
2023/05/23 12:41:29;;;;;;;9.88;1.52;;;;;;;;;;5098189;28;20351;-79
2023/05/23 12:43:56;;;;;;;5.97;1.35;;;;;;;;;;5080967;28;20343;-79
2023/05/23 12:46:23;;;;;;;5.18;1.50;;;;;;;;;;5098152;28;20032;-79
2023/05/23 12:48:50;;;;;;;6.80;1.63;;;;;;;;;;5096402;28;20035;-79
2023/05/23 12:51:16;;;;;;;5.75;1.88;;;;;;;;;;5099484;28;20028;-79
2023/05/23 12:53:42;;;;;;;5.65;1.70;;;;;;;;;;5081490;28;20490;-78
2023/05/23 12:56:08;;;;;;;3.97;1.58;;;;;;;;;;5079059;28;20480;-79
2023/05/23 12:58:34;;;;;;;8.70;1.73;;;;;;;;;;5080968;28;20053;-79
2023/05/23 13:01:01;;;;;;;9.20;2.20;;;;;;;;;;5099013;28;20497;-79
2023/05/23 13:03:29;;;;;;;5.93;1.23;;;;;;;;;;5098846;28;20094;-79
2023/05/23 13:05:56;;;;;;;3.38;1.08;;;;;;;;;;5100927;28;20051;-79
2023/05/23 13:08:22;;;;;;;10.07;1.48;;;;;;;;;;5098465;28;20078;-79
2023/05/23 13:10:48;;;;;;;8.48;1.85;;;;;;;;;;5096841;28;20405;-80
2023/05/23 13:13:14;;;;;;;7.05;1.42;;;;;;;;;;5098692;28;20089;-79
2023/05/23 13:15:40;;;;;;;5.07;1.00;;;;;;;;;;5087668;28;20033;-79
2023/05/23 13:18:06;;;;;;;5.47;1.38;;;;;;;;;;5075852;28;20055;-79
2023/05/23 13:20:33;;;;;;;4.40;1.65;;;;;;;;;;5080463;28;20036;-78
2023/05/23 13:22:59;;;;;;;8.88;1.20;;;;;;;;;;5093753;28;20656;-79
2023/05/23 13:25:26;;;;;;;5.82;1.02;;;;;;;;;;5082649;28;20024;-79
2023/05/23 13:27:52;;;;;;;10.02;1.67;;;;;;;;;;5091574;28;20039;-78
2023/05/23 13:30:19;;;;;;;5.18;1.30;;;;;;;;;;5077454;28;20531;-79
2023/05/23 13:32:45;;;;;;;3.58;1.05;;;;;;;;;;5068432;28;20032;-79
2023/05/23 13:35:11;;;;;;;4.85;1.10;;;;;;;;;;5070690;28;20032;-79
2023/05/23 13:37:44;;;;;;;5.03;1.73;;;;;;;;;;5075538;28;20356;-78
2023/05/23 13:40:12;;;;;;;3.25;0.85;;;;;;;;;;5075354;28;20029;-79
2023/05/23 13:42:38;;;;;;;5.97;1.63;;;;;;;;;;5058911;28;20028;-78
2023/05/23 13:45:04;;;;;;;1.95;0.75;;;;;;;;;;5076031;28;20024;-78
2023/05/23 13:47:30;;;;;;;8.00;1.50;;;;;;;;;;5075639;28;20024;-78
2023/05/23 13:49:56;;;;;;;7.65;1.58;;;;;;;;;;5073739;28;20359;-78
2023/05/23 13:52:22;;;;;;;3.80;1.02;;;;;;;;;;5076052;28;20029;-78
2023/05/23 13:54:48;;;;;;;7.90;1.63;;;;;;;;;;5075051;28;20028;-78
2023/05/23 13:57:14;;;;;;;7.32;1.50;;;;;;;;;;5069829;28;20025;-78
2023/05/23 13:59:40;;;;;;;7.55;1.13;;;;;;;;;;5054015;28;20025;-78
2023/05/23 14:02:06;;;;;;;5.68;0.90;;;;;;;;;;5054642;28;20031;-78
2023/05/23 14:04:33;;;;;;;7.57;1.40;;;;;;;;;;5055272;28;20044;-78
2023/05/23 14:06:59;;;;;;;3.70;0.85;;;;;;;;;;5068920;28;20078;-78
2023/05/23 14:09:25;;;;;;;7.65;1.70;;;;;;;;;;5087538;28;20495;-78
2023/05/23 14:11:53;;;;;;;8.60;2.83;;;;;;;;;;5068097;28;20029;-78
2023/05/23 14:14:19;;;;;;;5.97;1.60;;;;;;;;;;5057160;28;20025;-78
2023/05/23 14:16:45;;;;;;;3.83;0.90;;;;;;;;;;5057482;28;20062;-79
2023/05/23 14:19:11;;;;;;;9.77;1.90;;;;;;;;;;5070488;28;20021;-78
2023/05/23 14:21:37;;;;;;;4.15;1.20;;;;;;;;;;5078885;28;20240;-78
2023/05/23 14:24:03;;;;;;;2.10;1.10;;;;;;;;;;5076452;28;20653;-78
2023/05/23 14:26:30;;;;;;;4.82;1.40;;;;;;;;;;5076831;28;20032;-78
2023/05/23 14:28:56;;;;;;;3.63;1.25;;;;;;;;;;5077073;28;20040;-78
2023/05/23 14:31:21;;;;;;;4.97;2.03;;;;;;;;;;5098084;28;20028;-78
2023/05/23 14:33:48;;;;;;;8.57;1.85;;;;;;;;;;5097700;28;20032;-78
2023/05/23 14:36:14;;;;;;;5.90;1.75;;;;;;;;;;5097733;28;20020;-78
2023/05/23 14:38:44;;;;;;;4.60;1.23;;;;;;;;;;5097630;28;20032;-78
2023/05/23 14:41:10;;;;;;;6.60;1.20;;;;;;;;;;5077807;28;20360;-78